createdAt,value
2016-11-18T00:00:38.386Z,998.7
2016-11-18T00:01:38.371Z,998.5
2016-11-18T00:02:38.354Z,998.53
2016-11-18T00:03:38.369Z,998.74
2016-11-18T00:04:38.384Z,998.54
2016-11-18T00:05:38.374Z,998.3
2016-11-18T00:06:38.374Z,998.43
2016-11-18T00:07:38.381Z,998.67
2016-11-18T00:08:38.367Z,998.51
2016-11-18T00:09:38.369Z,999.08
2016-11-18T00:10:38.412Z,999.12
2016-11-18T00:11:38.780Z,999.27
2016-11-18T00:12:38.818Z,999.87
2016-11-18T00:13:38.400Z,999.93
2016-11-18T00:14:38.387Z,1000.16
2016-11-18T00:15:38.404Z,1000.2
2016-11-18T00:16:38.387Z,999.56
2016-11-18T00:17:38.398Z,999.54
2016-11-18T00:18:38.386Z,999.55
2016-11-18T00:19:38.494Z,999.21
2016-11-18T00:20:38.499Z,999.24
2016-11-18T00:21:38.387Z,998.73
2016-11-18T00:22:38.394Z,998.64
2016-11-18T00:23:38.382Z,998.59
2016-11-18T00:24:38.380Z,998.53
2016-11-18T00:25:38.406Z,998.18
2016-11-18T00:26:38.385Z,997.94
2016-11-18T00:27:38.390Z,997.79
2016-11-18T00:28:38.397Z,997.71
2016-11-18T00:29:38.426Z,996.47
2016-11-18T00:30:38.394Z,996.39
2016-11-18T00:31:38.382Z,996.09
2016-11-18T00:32:38.410Z,995.91
2016-11-18T00:33:38.501Z,996.25
2016-11-18T00:34:38.407Z,995.67
2016-11-18T00:35:41.122Z,995.74
2016-11-18T00:36:38.403Z,995.43
2016-11-18T00:37:40.992Z,995.78
2016-11-18T00:38:38.390Z,996.18
2016-11-18T00:39:38.394Z,996.55
2016-11-18T00:40:38.429Z,997.08
2016-11-18T00:41:41.044Z,997.4
2016-11-18T00:42:40.785Z,997.81
2016-11-18T00:43:41.280Z,998.38
2016-11-18T00:44:40.917Z,999.29
2016-11-18T00:45:41.098Z,999.83
2016-11-18T00:46:41.028Z,1000.23
2016-11-18T00:47:41.171Z,1000.79
2016-11-18T00:48:41.034Z,1001.13
2016-11-18T00:49:40.984Z,1001.54
2016-11-18T00:50:40.570Z,1002.23
2016-11-18T00:51:41.518Z,1002.97
2016-11-18T00:52:41.338Z,1003.61
2016-11-18T00:53:41.179Z,1002.27
2016-11-18T00:54:40.699Z,999.58
2016-11-18T00:55:41.444Z,995.22
2016-11-18T00:56:41.570Z,992.22
2016-11-18T00:57:41.038Z,988.2
2016-11-18T00:58:40.948Z,983.46
2016-11-18T00:59:41.135Z,979.26
2016-11-18T01:00:38.435Z,975.04
2016-11-18T01:01:38.437Z,970.38
2016-11-18T01:02:38.416Z,965.19
2016-11-18T01:03:38.417Z,960.23
2016-11-18T01:04:38.437Z,954.72
2016-11-18T01:05:41.339Z,950.73
2016-11-18T01:06:38.427Z,946.7
2016-11-18T01:07:38.416Z,942.43
2016-11-18T01:08:38.425Z,938.99
2016-11-18T01:09:38.435Z,936.05
2016-11-18T01:10:38.433Z,933.36
2016-11-18T01:11:38.426Z,929.98
2016-11-18T01:12:38.433Z,926.99
2016-11-18T01:13:38.422Z,924.84
2016-11-18T01:14:38.430Z,922.91
2016-11-18T01:15:38.428Z,921.35
2016-11-18T01:16:38.432Z,919.84
2016-11-18T01:17:38.433Z,918.44
2016-11-18T01:18:38.419Z,917.65
2016-11-18T01:19:38.421Z,916.52
2016-11-18T01:20:38.464Z,915.9
2016-11-18T01:21:38.439Z,915.37
2016-11-18T01:22:38.446Z,914.46
2016-11-18T01:23:38.431Z,913.36
2016-11-18T01:24:38.434Z,912.14
2016-11-18T01:25:38.451Z,911.45
2016-11-18T01:26:38.442Z,910.98
2016-11-18T01:27:38.436Z,910
2016-11-18T01:28:38.442Z,909
2016-11-18T01:29:38.427Z,908.04
2016-11-18T01:30:38.499Z,907.61
2016-11-18T01:31:38.484Z,906.99
2016-11-18T01:32:38.500Z,906.28
2016-11-18T01:33:38.434Z,906.29
2016-11-18T01:34:38.438Z,905.67
2016-11-18T01:35:38.447Z,905.27
2016-11-18T01:36:38.452Z,904.73
2016-11-18T01:37:38.457Z,903.96
2016-11-18T01:38:38.465Z,903.53
2016-11-18T01:39:38.434Z,902.94
2016-11-18T01:40:38.440Z,900.42
2016-11-18T01:41:38.436Z,902.15
2016-11-18T01:42:38.444Z,901.42
2016-11-18T01:43:38.434Z,901.11
2016-11-18T01:44:38.453Z,900.84
2016-11-18T01:45:38.449Z,900.73
2016-11-18T01:46:38.450Z,900.35
2016-11-18T01:47:38.462Z,899.4
2016-11-18T01:48:38.444Z,898.71
2016-11-18T01:49:38.453Z,898.75
2016-11-18T01:50:38.466Z,898.42
2016-11-18T01:51:38.458Z,897.57
2016-11-18T01:52:38.473Z,896.55
2016-11-18T01:53:38.453Z,895.29
2016-11-18T01:54:38.459Z,894.97
2016-11-18T01:55:38.485Z,893.81
2016-11-18T01:56:38.549Z,893.85
2016-11-18T01:57:38.473Z,893.37
2016-11-18T01:58:38.481Z,892.52
2016-11-18T01:59:38.473Z,892.09
2016-11-18T02:00:38.480Z,891.57
2016-11-18T02:01:38.473Z,891.96
2016-11-18T02:02:38.559Z,891.93
2016-11-18T02:03:38.464Z,892.02
2016-11-18T02:04:38.526Z,892.21
2016-11-18T02:05:38.451Z,892.07
2016-11-18T02:06:38.479Z,892.23
2016-11-18T02:07:38.476Z,892.59
2016-11-18T02:08:38.466Z,892.37
2016-11-18T02:09:38.475Z,892.54
2016-11-18T02:10:38.479Z,892.73
2016-11-18T02:11:38.473Z,892.47
2016-11-18T02:12:38.498Z,892.39
2016-11-18T02:13:38.472Z,892.46
2016-11-18T02:14:38.481Z,892.44
2016-11-18T02:15:38.485Z,892.38
2016-11-18T02:16:38.478Z,892.36
2016-11-18T02:17:38.501Z,893.1
2016-11-18T02:18:38.492Z,892.54
2016-11-18T02:19:38.498Z,892.36
2016-11-18T02:20:38.507Z,892.32
2016-11-18T02:21:38.495Z,892.02
2016-11-18T02:22:38.502Z,890.92
2016-11-18T02:23:38.494Z,890.37
2016-11-18T02:24:38.481Z,890.04
2016-11-18T02:25:38.727Z,889.49
2016-11-18T02:26:38.494Z,888.61
2016-11-18T02:27:38.494Z,888.24
2016-11-18T02:28:38.498Z,887.85
2016-11-18T02:29:38.484Z,887.7
2016-11-18T02:30:38.500Z,887.39
2016-11-18T02:31:38.487Z,886.8
2016-11-18T02:32:38.508Z,886.57
2016-11-18T02:33:38.501Z,886.31
2016-11-18T02:34:38.505Z,885.59
2016-11-18T02:35:38.490Z,885
2016-11-18T02:36:38.506Z,884.09
2016-11-18T02:37:38.573Z,883.56
2016-11-18T02:38:38.477Z,883.19
2016-11-18T02:39:38.503Z,882.83
2016-11-18T02:40:38.494Z,882.09
2016-11-18T02:41:38.484Z,881.52
2016-11-18T02:42:38.519Z,881.64
2016-11-18T02:43:38.513Z,881.52
2016-11-18T02:44:38.503Z,881.21
2016-11-18T02:45:38.500Z,880.67
2016-11-18T02:46:38.487Z,880.15
2016-11-18T02:47:38.809Z,880.44
2016-11-18T02:48:38.497Z,880.46
2016-11-18T02:49:38.498Z,879.67
2016-11-18T02:50:38.494Z,879.68
2016-11-18T02:51:38.503Z,879.64
2016-11-18T02:52:38.508Z,878.96
2016-11-18T02:53:38.499Z,878.57
2016-11-18T02:54:38.516Z,878.26
2016-11-18T02:55:38.513Z,877.53
2016-11-18T02:56:38.516Z,876.04
2016-11-18T02:57:38.523Z,874.11
2016-11-18T02:58:38.512Z,872.88
2016-11-18T02:59:38.509Z,871.18
2016-11-18T03:00:38.500Z,870.26
2016-11-18T03:01:38.509Z,868.87
2016-11-18T03:02:38.519Z,867.95
2016-11-18T03:03:38.526Z,867.3
2016-11-18T03:04:38.570Z,866.1
2016-11-18T03:05:38.508Z,865.84
2016-11-18T03:06:38.500Z,866.08
2016-11-18T03:07:38.529Z,865.22
2016-11-18T03:08:38.514Z,865.87
2016-11-18T03:09:38.504Z,865.35
2016-11-18T03:10:38.497Z,864.86
2016-11-18T03:11:38.563Z,864.92
2016-11-18T03:12:39.046Z,865.5
2016-11-18T03:13:38.515Z,865.14
2016-11-18T03:14:38.507Z,865
2016-11-18T03:15:38.513Z,865.3
2016-11-18T03:16:38.506Z,864.78
2016-11-18T03:17:38.525Z,865.26
2016-11-18T03:18:38.519Z,864.73
2016-11-18T03:19:38.511Z,864.92
2016-11-18T03:20:38.518Z,864.76
2016-11-18T03:21:38.545Z,864.48
2016-11-18T03:22:38.539Z,863.8
2016-11-18T03:23:38.519Z,864.51
2016-11-18T03:24:38.540Z,863.98
2016-11-18T03:25:38.513Z,863.41
2016-11-18T03:26:38.514Z,863.45
2016-11-18T03:27:38.525Z,862.82
2016-11-18T03:28:38.527Z,862.63
2016-11-18T03:29:38.511Z,862.85
2016-11-18T03:30:38.530Z,863.1
2016-11-18T03:31:38.512Z,862.85
2016-11-18T03:32:38.536Z,863.34
2016-11-18T03:33:38.553Z,863.33
2016-11-18T03:34:38.517Z,863.01
2016-11-18T03:35:38.530Z,863.95
2016-11-18T03:36:38.544Z,864.26
2016-11-18T03:37:38.571Z,864.43
2016-11-18T03:38:38.537Z,864.04
2016-11-18T03:39:38.534Z,864.13
2016-11-18T03:40:38.536Z,864.22
2016-11-18T03:41:38.533Z,865.15
2016-11-18T03:42:38.541Z,864.65
2016-11-18T03:43:38.536Z,865.44
2016-11-18T03:44:38.565Z,865.76
2016-11-18T03:45:38.529Z,865.89
2016-11-18T03:46:38.526Z,865.4
2016-11-18T03:47:38.543Z,865.83
2016-11-18T03:48:38.537Z,866.31
2016-11-18T03:49:38.537Z,866.16
2016-11-18T03:50:38.535Z,866.25
2016-11-18T03:51:38.551Z,865.83
2016-11-18T03:52:38.549Z,865.78
2016-11-18T03:53:38.551Z,865.26
2016-11-18T03:54:38.535Z,865.65
2016-11-18T03:55:38.544Z,865.24
2016-11-18T03:56:38.551Z,865.17
2016-11-18T03:57:38.541Z,865.9
2016-11-18T03:58:38.555Z,865.48
2016-11-18T03:59:38.545Z,864.89
2016-11-18T04:00:38.538Z,864.37
2016-11-18T04:01:38.544Z,864.56
2016-11-18T04:02:38.550Z,864.98
2016-11-18T04:03:38.552Z,864.75
2016-11-18T04:04:38.550Z,864.67
2016-11-18T04:05:38.544Z,864.45
2016-11-18T04:06:38.551Z,864.08
2016-11-18T04:07:38.543Z,863.54
2016-11-18T04:08:38.566Z,863.6
2016-11-18T04:09:38.557Z,863.01
2016-11-18T04:10:38.557Z,863.2
2016-11-18T04:11:38.552Z,862.72
2016-11-18T04:12:38.550Z,862.95
2016-11-18T04:13:38.579Z,862.45
2016-11-18T04:14:38.552Z,862.35
2016-11-18T04:15:38.557Z,862.05
2016-11-18T04:16:38.561Z,861.87
2016-11-18T04:17:38.566Z,860.91
2016-11-18T04:18:38.566Z,860.16
2016-11-18T04:19:38.564Z,858.94
2016-11-18T04:20:38.548Z,858.47
2016-11-18T04:21:38.569Z,857.07
2016-11-18T04:22:38.572Z,856.84
2016-11-18T04:23:38.595Z,856.28
2016-11-18T04:24:38.585Z,855.98
2016-11-18T04:25:38.569Z,854.43
2016-11-18T04:26:38.560Z,852.4
2016-11-18T04:27:38.588Z,850.13
2016-11-18T04:28:38.605Z,847.7
2016-11-18T04:29:38.596Z,844.23
2016-11-18T04:30:38.643Z,840.83
2016-11-18T04:31:38.577Z,837.1
2016-11-18T04:32:38.571Z,834
2016-11-18T04:33:38.578Z,830.68
2016-11-18T04:34:38.585Z,827.72
2016-11-18T04:35:38.573Z,824.14
2016-11-18T04:36:38.569Z,821.74
2016-11-18T04:37:38.573Z,818.81
2016-11-18T04:38:38.577Z,816.14
2016-11-18T04:39:38.599Z,813.56
2016-11-18T04:40:38.579Z,810.98
2016-11-18T04:41:38.561Z,807.63
2016-11-18T04:42:38.580Z,805.73
2016-11-18T04:43:38.575Z,802.92
2016-11-18T04:44:38.601Z,801.21
2016-11-18T04:45:38.590Z,800.6
2016-11-18T04:46:38.595Z,799.28
2016-11-18T04:47:38.602Z,798.19
2016-11-18T04:48:38.611Z,797.55
2016-11-18T04:49:38.617Z,796.1
2016-11-18T04:50:38.611Z,795.12
2016-11-18T04:51:38.582Z,794.23
2016-11-18T04:52:38.586Z,792.23
2016-11-18T04:53:38.581Z,791.72
2016-11-18T04:54:38.587Z,790.78
2016-11-18T04:55:38.584Z,789.23
2016-11-18T04:56:38.583Z,787.95
2016-11-18T04:57:38.605Z,787.14
2016-11-18T04:58:38.610Z,786.13
2016-11-18T04:59:38.603Z,784.69
2016-11-18T05:00:38.779Z,783.54
2016-11-18T05:01:38.618Z,781.32
2016-11-18T05:02:38.589Z,779.09
2016-11-18T05:03:38.612Z,776.53
2016-11-18T05:04:38.602Z,772.53
2016-11-18T05:05:38.617Z,767.89
2016-11-18T05:06:38.602Z,764
2016-11-18T05:07:38.606Z,760.32
2016-11-18T05:08:38.589Z,756.87
2016-11-18T05:09:38.621Z,754.15
2016-11-18T05:10:38.621Z,751.06
2016-11-18T05:11:38.619Z,747.49
2016-11-18T05:12:38.593Z,745.04
2016-11-18T05:13:38.595Z,741.91
2016-11-18T05:14:38.621Z,739.03
2016-11-18T05:15:38.638Z,736.37
2016-11-18T05:16:38.614Z,733.23
2016-11-18T05:17:38.605Z,731.74
2016-11-18T05:18:38.615Z,729.1
2016-11-18T05:19:38.603Z,727.11
2016-11-18T05:20:38.640Z,724.57
2016-11-18T05:21:38.634Z,721.63
2016-11-18T05:22:38.624Z,719.26
2016-11-18T05:23:38.618Z,716.41
2016-11-18T05:24:38.621Z,714.19
2016-11-18T05:25:38.631Z,711.89
2016-11-18T05:26:38.609Z,708.57
2016-11-18T05:27:38.615Z,706.76
2016-11-18T05:28:38.611Z,704.56
2016-11-18T05:29:38.618Z,703.03
2016-11-18T05:30:38.656Z,700.34
2016-11-18T05:31:38.616Z,699.31
2016-11-18T05:32:38.621Z,697.3
2016-11-18T05:33:38.619Z,697.57
2016-11-18T05:34:38.635Z,696.58
2016-11-18T05:35:38.629Z,695.87
2016-11-18T05:36:38.606Z,696.2
2016-11-18T05:37:38.617Z,696.34
2016-11-18T05:38:38.629Z,695.98
2016-11-18T05:39:38.617Z,695.95
2016-11-18T05:40:38.641Z,696.41
2016-11-18T05:41:38.682Z,696.12
2016-11-18T05:42:38.623Z,696.49
2016-11-18T05:43:38.629Z,696.31
2016-11-18T05:44:38.652Z,696.72
2016-11-18T05:45:38.643Z,697.85
2016-11-18T05:46:38.634Z,697.57
2016-11-18T05:47:38.622Z,697.93
2016-11-18T05:48:38.629Z,699.08
2016-11-18T05:49:38.637Z,699.67
2016-11-18T05:50:38.658Z,700.89
2016-11-18T05:51:38.632Z,701.49
2016-11-18T05:52:38.635Z,701.8
2016-11-18T05:53:38.643Z,704.08
2016-11-18T05:54:38.645Z,704.34
2016-11-18T05:55:38.654Z,705.68
2016-11-18T05:56:38.650Z,706.68
2016-11-18T05:57:38.644Z,708.23
2016-11-18T05:58:38.651Z,709.16
2016-11-18T05:59:38.655Z,709.5
2016-11-18T06:00:38.661Z,710.38
2016-11-18T06:01:38.653Z,711
2016-11-18T06:02:38.641Z,712.24
2016-11-18T06:03:38.648Z,712.18
2016-11-18T06:04:38.636Z,711.92
2016-11-18T06:05:38.648Z,713.14
2016-11-18T06:06:38.664Z,712.65
2016-11-18T06:07:38.633Z,713
2016-11-18T06:08:38.654Z,713.57
2016-11-18T06:09:38.685Z,714.01
2016-11-18T06:10:38.642Z,714.53
2016-11-18T06:11:38.670Z,714.68
2016-11-18T06:12:38.639Z,714.12
2016-11-18T06:13:38.643Z,713.6
2016-11-18T06:14:38.647Z,714.22
2016-11-18T06:15:38.645Z,713.17
2016-11-18T06:16:38.666Z,712.29
2016-11-18T06:17:38.690Z,712.47
2016-11-18T06:18:38.657Z,710.06
2016-11-18T06:19:38.649Z,710.24
2016-11-18T06:20:38.648Z,709
2016-11-18T06:21:38.669Z,708.11
2016-11-18T06:22:38.655Z,708.15
2016-11-18T06:23:38.654Z,708.18
2016-11-18T06:24:38.654Z,707.27
2016-11-18T06:25:38.671Z,706.15
2016-11-18T06:26:38.661Z,706.68
2016-11-18T06:27:38.671Z,705.9
2016-11-18T06:28:38.652Z,705.78
2016-11-18T06:29:38.674Z,705.94
2016-11-18T06:30:38.663Z,705.63
2016-11-18T06:31:38.666Z,706.58
2016-11-18T06:32:38.677Z,706.06
2016-11-18T06:33:38.662Z,706.97
2016-11-18T06:34:38.661Z,707.28
2016-11-18T06:35:38.655Z,707.96
2016-11-18T06:36:38.666Z,708.5
2016-11-18T06:37:38.707Z,708.62
2016-11-18T06:38:38.696Z,708.75
2016-11-18T06:39:38.680Z,709.08
2016-11-18T06:40:38.661Z,709.05
2016-11-18T06:41:38.660Z,709.34
2016-11-18T06:42:38.692Z,709.45
2016-11-18T06:43:38.676Z,708.33
2016-11-18T06:44:38.666Z,708.4
2016-11-18T06:45:38.677Z,708.01
2016-11-18T06:46:38.676Z,705.94
2016-11-18T06:47:38.689Z,706.61
2016-11-18T06:48:38.666Z,706.2
2016-11-18T06:49:38.680Z,706.33
2016-11-18T06:50:38.676Z,705.89
2016-11-18T06:51:39.072Z,704.61
2016-11-18T06:52:38.702Z,704.47
2016-11-18T06:53:38.678Z,704.58
2016-11-18T06:54:38.677Z,705.03
2016-11-18T06:55:38.678Z,705.07
2016-11-18T06:56:38.675Z,704.69
2016-11-18T06:57:38.694Z,704.88
2016-11-18T06:58:38.675Z,704.77
2016-11-18T06:59:38.676Z,705.09
2016-11-18T07:00:38.669Z,705.21
2016-11-18T07:01:38.675Z,704.81
2016-11-18T07:02:38.684Z,704.34
2016-11-18T07:03:38.675Z,704.38
2016-11-18T07:04:38.675Z,703.88
2016-11-18T07:05:38.675Z,703.35
2016-11-18T07:06:38.680Z,703.01
2016-11-18T07:07:38.688Z,702.02
2016-11-18T07:08:38.691Z,700.89
2016-11-18T07:09:38.711Z,699.53
2016-11-18T07:10:38.685Z,698.33
2016-11-18T07:11:38.695Z,696.32
2016-11-18T07:12:38.713Z,694.41
2016-11-18T07:13:38.705Z,692.32
2016-11-18T07:14:38.694Z,691.02
2016-11-18T07:15:38.762Z,689.42
2016-11-18T07:16:38.694Z,686.61
2016-11-18T07:17:38.712Z,685.04
2016-11-18T07:18:38.692Z,683.3
2016-11-18T07:19:38.710Z,682.08
2016-11-18T07:20:38.707Z,679.78
2016-11-18T07:21:38.702Z,678.17
2016-11-18T07:22:38.717Z,676.88
2016-11-18T07:23:38.710Z,675.13
2016-11-18T07:24:38.698Z,673.94
2016-11-18T07:25:38.714Z,672.86
2016-11-18T07:26:38.715Z,671.33
2016-11-18T07:27:38.720Z,671.05
2016-11-18T07:28:38.712Z,669.85
2016-11-18T07:29:38.711Z,669
2016-11-18T07:30:38.711Z,668.67
2016-11-18T07:31:38.712Z,668.57
2016-11-18T07:32:38.722Z,667.31
2016-11-18T07:33:38.699Z,668.11
2016-11-18T07:34:38.704Z,668.15
2016-11-18T07:35:38.726Z,668.35
2016-11-18T07:36:38.709Z,669.58
2016-11-18T07:37:38.730Z,669.78
2016-11-18T07:38:38.855Z,670.85
2016-11-18T07:39:38.721Z,671.63
2016-11-18T07:40:38.730Z,672.16
2016-11-18T07:41:38.736Z,673.84
2016-11-18T07:42:38.742Z,675.03
2016-11-18T07:43:39.330Z,675.53
2016-11-18T07:44:38.733Z,676.96
2016-11-18T07:45:38.724Z,677.24
2016-11-18T07:46:38.732Z,677.83
2016-11-18T07:47:38.716Z,677.66
2016-11-18T07:48:38.737Z,677.11
2016-11-18T07:49:38.731Z,677.84
2016-11-18T07:50:38.737Z,677.71
2016-11-18T07:51:38.717Z,679.63
2016-11-18T07:52:38.727Z,679
2016-11-18T07:53:38.743Z,678.54
2016-11-18T07:54:38.743Z,678.16
2016-11-18T07:55:38.726Z,677.84
2016-11-18T07:56:38.714Z,677.88
2016-11-18T07:57:38.724Z,677.87
2016-11-18T07:58:38.742Z,677.44
2016-11-18T07:59:38.717Z,677.26
2016-11-18T08:00:38.743Z,678.3
2016-11-18T08:01:38.721Z,678.77
2016-11-18T08:02:38.720Z,678.38
2016-11-18T08:03:38.735Z,679.53
2016-11-18T08:04:38.755Z,680.16
2016-11-18T08:05:38.746Z,681.37
2016-11-18T08:06:38.724Z,682.19
2016-11-18T08:07:38.736Z,682.94
2016-11-18T08:08:38.752Z,684.42
2016-11-18T08:09:38.771Z,685.03
2016-11-18T08:10:38.739Z,687.27
2016-11-18T08:11:38.730Z,688.84
2016-11-18T08:12:38.736Z,691.12
2016-11-18T08:13:38.737Z,691.75
2016-11-18T08:14:38.755Z,692.07
2016-11-18T08:15:38.749Z,692.39
2016-11-18T08:16:38.724Z,693.26
2016-11-18T08:17:38.797Z,693.14
2016-11-18T08:18:38.747Z,692.83
2016-11-18T08:19:38.804Z,693.84
2016-11-18T08:20:38.740Z,695.13
2016-11-18T08:21:38.752Z,695.89
2016-11-18T08:22:39.322Z,697.86
2016-11-18T08:23:38.740Z,698.57
2016-11-18T08:24:38.755Z,700.17
2016-11-18T08:25:38.745Z,701.48
2016-11-18T08:26:38.738Z,703.47
2016-11-18T08:27:38.730Z,704.39
2016-11-18T08:28:40.161Z,705.91
2016-11-18T08:29:38.933Z,708.12
2016-11-18T08:30:38.740Z,709.31
2016-11-18T08:31:38.756Z,711.05
2016-11-18T08:32:38.744Z,712.94
2016-11-18T08:33:38.743Z,714.21
2016-11-18T08:34:38.765Z,716.32
2016-11-18T08:35:38.753Z,719.21
2016-11-18T08:36:38.744Z,721.35
2016-11-18T08:37:38.760Z,724.38
2016-11-18T08:38:38.757Z,727.72
2016-11-18T08:39:38.781Z,731.43
2016-11-18T08:40:38.772Z,734.8
2016-11-18T08:41:38.749Z,738.17
2016-11-18T08:42:38.789Z,742.18
2016-11-18T08:43:38.778Z,746.48
2016-11-18T08:44:38.941Z,750.9
2016-11-18T08:45:38.760Z,754.55
2016-11-18T08:46:38.754Z,758.96
2016-11-18T08:47:38.756Z,762.91
2016-11-18T08:48:38.762Z,767.46
2016-11-18T08:49:38.770Z,771.75
2016-11-18T08:50:38.751Z,777.8
2016-11-18T08:51:38.769Z,783.16
2016-11-18T08:52:38.763Z,787.37
2016-11-18T08:53:38.758Z,790.71
2016-11-18T08:54:38.780Z,794.99
2016-11-18T08:55:38.817Z,797.72
2016-11-18T08:56:38.785Z,800.88
2016-11-18T08:57:38.760Z,803.12
2016-11-18T08:58:38.770Z,805.01
2016-11-18T08:59:38.782Z,806.82
2016-11-18T09:00:38.753Z,808.16
2016-11-18T09:01:38.809Z,809.26
2016-11-18T09:02:38.836Z,809.61
2016-11-18T09:03:38.782Z,809.26
2016-11-18T09:04:39.097Z,808.54
2016-11-18T09:05:38.773Z,810.23
2016-11-18T09:06:38.779Z,812.38
2016-11-18T09:07:38.936Z,814.68
2016-11-18T09:08:38.782Z,817.57
2016-11-18T09:09:38.833Z,821.57
2016-11-18T09:10:38.775Z,825.35
2016-11-18T09:11:38.769Z,829.46
2016-11-18T09:12:38.772Z,833.13
2016-11-18T09:13:38.780Z,837.92
2016-11-18T09:14:38.804Z,841.74
2016-11-18T09:15:38.913Z,846.08
2016-11-18T09:16:38.783Z,849.56
2016-11-18T09:17:38.865Z,853.23
2016-11-18T09:18:38.782Z,855.58
2016-11-18T09:19:38.879Z,857.81
2016-11-18T09:20:39.339Z,859.5
2016-11-18T09:21:38.782Z,861.15
2016-11-18T09:22:38.789Z,861.6
2016-11-18T09:23:38.789Z,863.1
2016-11-18T09:24:38.831Z,864.71
2016-11-18T09:25:38.804Z,865.94
2016-11-18T09:26:38.797Z,866.98
2016-11-18T09:27:38.792Z,868.17
2016-11-18T09:28:38.782Z,868.84
2016-11-18T09:29:38.787Z,868.87
2016-11-18T09:30:38.809Z,868.89
2016-11-18T09:31:38.785Z,867.76
2016-11-18T09:32:38.796Z,868.18
2016-11-18T09:33:38.815Z,867.77
2016-11-18T09:34:38.802Z,867.92
2016-11-18T09:35:38.812Z,868.25
2016-11-18T09:36:38.806Z,868.25
2016-11-18T09:37:38.791Z,869.7
2016-11-18T09:38:38.828Z,872.17
2016-11-18T09:39:38.809Z,876.64
2016-11-18T09:40:38.824Z,882.07
2016-11-18T09:41:38.805Z,888.53
2016-11-18T09:42:38.811Z,894.25
2016-11-18T09:43:38.813Z,900.42
2016-11-18T09:44:38.791Z,906.84
2016-11-18T09:45:38.936Z,914.26
2016-11-18T09:46:38.801Z,921.21
2016-11-18T09:47:38.813Z,925.29
2016-11-18T09:48:38.866Z,928.33
2016-11-18T09:49:38.817Z,932.4
2016-11-18T09:50:38.894Z,935.63
2016-11-18T09:51:38.876Z,937.92
2016-11-18T09:52:38.808Z,940.49
2016-11-18T09:53:38.804Z,942.02
2016-11-18T09:54:38.834Z,942.03
2016-11-18T09:55:38.811Z,941.64
2016-11-18T09:56:39.479Z,940.31
2016-11-18T09:57:38.839Z,939.36
2016-11-18T09:58:38.804Z,938.16
2016-11-18T09:59:39.469Z,937.41
2016-11-18T10:00:38.817Z,936.86
2016-11-18T10:01:38.817Z,936.61
2016-11-18T10:02:39.557Z,936.78
2016-11-18T10:03:38.813Z,937.37
2016-11-18T10:04:38.809Z,938.27
2016-11-18T10:05:38.814Z,939.31
2016-11-18T10:06:38.812Z,939.63
2016-11-18T10:07:38.815Z,940.84
2016-11-18T10:08:38.824Z,941.06
2016-11-18T10:09:38.804Z,941.95
2016-11-18T10:10:38.857Z,942.59
2016-11-18T10:11:38.828Z,944.21
2016-11-18T10:12:38.832Z,946.07
2016-11-18T10:13:38.857Z,946.43
2016-11-18T10:14:38.823Z,947.27
2016-11-18T10:15:38.841Z,947.5
2016-11-18T10:16:38.828Z,947.97
2016-11-18T10:17:39.040Z,948.13
2016-11-18T10:18:38.831Z,950.09
2016-11-18T10:19:38.816Z,951.87
2016-11-18T10:20:38.858Z,954.33
2016-11-18T10:21:38.825Z,957.75
2016-11-18T10:22:38.836Z,960.31
2016-11-18T10:23:39.593Z,961.26
2016-11-18T10:24:38.829Z,959.77
2016-11-18T10:25:38.839Z,957.82
2016-11-18T10:26:38.831Z,955.89
2016-11-18T10:27:38.850Z,953.75
2016-11-18T10:28:38.822Z,951.54
2016-11-18T10:29:38.838Z,949.61
2016-11-18T10:30:38.845Z,948.95
2016-11-18T10:31:38.835Z,948.22
2016-11-18T10:32:38.839Z,948.66
2016-11-18T10:33:38.835Z,948.92
2016-11-18T10:34:38.842Z,950.18
2016-11-18T10:35:38.868Z,949.82
2016-11-18T10:36:38.834Z,948.12
2016-11-18T10:37:38.846Z,945.66
2016-11-18T10:38:38.842Z,942.87
2016-11-18T10:39:38.885Z,940.72
2016-11-18T10:40:38.855Z,938.83
2016-11-18T10:41:38.863Z,935.95
2016-11-18T10:42:38.853Z,934.41
2016-11-18T10:43:38.854Z,932.82
2016-11-18T10:44:38.855Z,931.26
2016-11-18T10:45:38.857Z,930.68
2016-11-18T10:46:38.857Z,929.36
2016-11-18T10:47:38.865Z,929.01
2016-11-18T10:48:38.850Z,930.26
2016-11-18T10:49:38.845Z,931.75
2016-11-18T10:50:38.851Z,933.74
2016-11-18T10:51:38.859Z,937.8
2016-11-18T10:52:38.845Z,941.37
2016-11-18T10:53:38.854Z,944.77
2016-11-18T10:54:38.858Z,949.4
2016-11-18T10:55:38.856Z,954.15
2016-11-18T10:56:38.852Z,958.54
2016-11-18T10:57:38.864Z,963.13
2016-11-18T10:58:38.844Z,967.26
2016-11-18T10:59:38.857Z,970.73
2016-11-18T11:00:38.861Z,973.58
2016-11-18T11:01:38.910Z,976
2016-11-18T11:02:38.859Z,978.51
2016-11-18T11:03:38.883Z,979.34
2016-11-18T11:04:38.867Z,979.93
2016-11-18T11:05:38.867Z,980.34
2016-11-18T11:06:38.880Z,981.33
2016-11-18T11:07:38.886Z,981.22
2016-11-18T11:08:38.861Z,980.73
2016-11-18T11:09:38.894Z,979.48
2016-11-18T11:10:38.858Z,977.89
2016-11-18T11:11:38.855Z,976.18
2016-11-18T11:12:38.858Z,974.69
2016-11-18T11:13:38.869Z,972.42
2016-11-18T11:14:38.870Z,970.25
2016-11-18T11:15:38.872Z,967.71
2016-11-18T11:16:38.871Z,964.92
2016-11-18T11:17:38.885Z,964.04
2016-11-18T11:18:38.874Z,962.48
2016-11-18T11:19:38.861Z,960.32
2016-11-18T11:20:38.888Z,958.94
2016-11-18T11:21:38.874Z,957.88
2016-11-18T11:22:38.874Z,956.6
2016-11-18T11:23:38.882Z,956.27
2016-11-18T11:24:38.876Z,957.95
2016-11-18T11:25:38.952Z,959.89
2016-11-18T11:26:38.903Z,961.47
2016-11-18T11:27:38.891Z,962.78
2016-11-18T11:28:38.898Z,963.92
2016-11-18T11:29:38.874Z,965.12
2016-11-18T11:30:38.929Z,965.63
2016-11-18T11:31:38.892Z,965.18
2016-11-18T11:32:38.888Z,963.84
2016-11-18T11:33:38.932Z,962.68
2016-11-18T11:34:38.895Z,962.15
2016-11-18T11:35:38.889Z,962.09
2016-11-18T11:36:38.904Z,963.47
2016-11-18T11:37:38.903Z,965.21
2016-11-18T11:38:38.889Z,967.63
2016-11-18T11:39:38.879Z,970.74
2016-11-18T11:40:38.870Z,972.38
2016-11-18T11:41:38.891Z,972.76
2016-11-18T11:42:38.896Z,971.72
2016-11-18T11:43:38.891Z,970.64
2016-11-18T11:44:38.881Z,972.13
2016-11-18T11:45:38.889Z,972.88
2016-11-18T11:46:38.898Z,972.98
2016-11-18T11:47:38.917Z,970.85
2016-11-18T11:48:38.915Z,968.51
2016-11-18T11:49:38.890Z,965.69
2016-11-18T11:50:38.898Z,963.27
2016-11-18T11:51:38.921Z,961.7
2016-11-18T11:52:38.907Z,957.99
2016-11-18T11:53:38.904Z,953.79
2016-11-18T11:54:38.909Z,948.75
2016-11-18T11:55:38.914Z,944.22
2016-11-18T11:56:38.921Z,941.5
2016-11-18T11:57:38.895Z,939.65
2016-11-18T11:58:38.898Z,937.78
2016-11-18T11:59:38.928Z,934.6
2016-11-18T12:00:38.905Z,932.66
2016-11-18T12:01:38.922Z,931.82
2016-11-18T12:02:38.930Z,930.56
2016-11-18T12:03:38.911Z,930.23
2016-11-18T12:04:38.927Z,930.86
2016-11-18T12:05:38.908Z,929.54
2016-11-18T12:06:38.920Z,927.87
2016-11-18T12:07:38.904Z,925.33
2016-11-18T12:08:38.930Z,922.75
2016-11-18T12:09:38.907Z,921.68
2016-11-18T12:10:38.922Z,920.8
2016-11-18T12:11:38.933Z,918.17
2016-11-18T12:12:38.927Z,917.45
2016-11-18T12:13:38.922Z,913.9
2016-11-18T12:14:38.928Z,913.34
2016-11-18T12:15:38.907Z,912.13
2016-11-18T12:16:38.937Z,910.79
2016-11-18T12:17:38.918Z,910.21
2016-11-18T12:18:38.925Z,909.85
2016-11-18T12:19:38.930Z,909.8
2016-11-18T12:20:38.916Z,909.56
2016-11-18T12:21:38.995Z,909.83
2016-11-18T12:22:38.913Z,910.19
2016-11-18T12:23:39.024Z,910.85
2016-11-18T12:24:38.928Z,912.43
2016-11-18T12:25:38.928Z,913.82
2016-11-18T12:26:38.964Z,914.52
2016-11-18T12:27:38.925Z,915.01
2016-11-18T12:28:38.950Z,915.22
2016-11-18T12:29:38.935Z,914.2
2016-11-18T12:30:38.933Z,912.93
2016-11-18T12:31:38.948Z,912.8